Andrews Air Force Base, Maryland
Current Conditions -  °F | °C
As of 4:58 AM on Friday 24 Oct 2014 (Local Time) from KADW Reporting Station
Clear Clear  
Wind Chill: 54°   Ceiling: Unl
Heat Index: 54°   Visibility: 10mi
Dew Point: 42°   Wind: 12mph
Humidity: 64%   Direction: 300°WNW
Pressure: 29.92"   Gusts: NA
Location:  38.8062°N, 76.8756°W
Report Text: KADW 240858Z AUTO 30010KT 10SM CLR 12/06 A2992 RMK AO2 SLP138 T01220056 50008 $
Loading
Personal Weather Stations






























Interactive Weather Map
Tropical Storm Tracking
New forecast layout! Learn more

10-Day Weather Forecast

Advertisements
Track Severe Weather on mobile